»·PEaware :: GSA250 KPHL-KDCA

GSA250 :: KPHL-KDCA

FLIGHT INFORMATION

Flight Status: Arrived
Operator:
Global Sim Alliance
More flights by this operator :: More flights under this callsign
Pilot: Andrew J. (13363)
Aircraft: BOEING 737-300
(B733)
More flights by this aircraft type
Origin: KPHL Philadelphia Intl
United States
Destination: KDCA Ronald Reagan Washington Natl
United States
More flights between these airports :: More routes between these airports
Route: MXE V378 BAL
File this flight plan on PilotEdge
Remarks: INFORMATION WHISKEY CURRENT
Altitude:
(Current/Filed)
14,000ft
Speed:
(Current/Filed)
280kts
Departed: 04-May-17 10:32 PM
Arrived: 04-May-17 11:07 PM
Distance/Time
Traveled:
103nm/0:35
Distance/Time
To Go:
Arrived

Flight Plot

Page will automatically refresh every two minutes.

Flight plan parsing failed; only flown route is shown


Map Options




Map Legend


Flown Route
Filed Route
Departure Airport
Arrival Airport
Navaid (VOR, NDB)
Fix

Horizontal Profiles

Position Reports

Time Latitude Longitude Heading Altitude Ground
Speed
04-May-17 22:26 39.876383 -75.238674 219 43ft 0kts
04-May-17 22:27 39.876663 -75.238378 212 43ft 0kts
04-May-17 22:28 39.877041 -75.238523 122 43ft 0kts
04-May-17 22:29 39.877040 -75.238523 119 43ft 0kts
04-May-17 22:30 39.875637 -75.236017 170 43ft 18kts
04-May-17 22:31 39.872882 -75.240114 258 43ft 15kts
04-May-17 22:32 39.871534 -75.246977 261 43ft 22kts
04-May-17 22:33 39.869997 -75.254728 255 44ft 16kts
04-May-17 22:34 39.870707 -75.245572 75 44ft 123kts
04-May-17 22:35 39.900470 -75.212994 347 1998ft 208kts
04-May-17 22:36 39.913400 -75.276934 231 4473ft 245kts
04-May-17 22:37 39.884989 -75.358456 262 7629ft 272kts
04-May-17 22:38 39.894849 -75.455650 274 10789ft 296kts
04-May-17 22:39 39.906190 -75.566696 273 13629ft 323kts
04-May-17 22:40 39.914280 -75.672027 255 13987ft 321kts
04-May-17 22:41 39.867190 -75.768949 235 14071ft 320kts
04-May-17 22:42 39.817328 -75.864090 235 14067ft 320kts
04-May-17 22:43 39.767474 -75.959311 235 14067ft 320kts
04-May-17 22:44 39.734767 -76.021627 235 14063ft 320kts
04-May-17 22:45 39.694440 -76.098220 235 14067ft 322kts
04-May-17 22:46 39.643339 -76.192928 235 14067ft 322kts
04-May-17 22:47 39.593105 -76.287376 235 14067ft 321kts
04-May-17 22:48 39.523724 -76.358296 215 14044ft 324kts
04-May-17 22:49 39.448983 -76.421299 216 14040ft 324kts
04-May-17 22:50 39.375321 -76.484651 216 14040ft 324kts
04-May-17 22:51 39.306662 -76.543944 216 12576ft 308kts
04-May-17 22:52 39.240836 -76.602069 215 10936ft 289kts
04-May-17 22:53 39.179186 -76.655540 218 10030ft 267kts
04-May-17 22:54 39.126407 -76.702875 187 9501ft 269kts
04-May-17 22:55 39.088268 -76.769544 258 8866ft 264kts
04-May-17 22:56 39.077994 -76.860407 259 8231ft 262kts
04-May-17 22:57 39.073106 -76.951924 264 7595ft 262kts
04-May-17 22:58 39.069649 -77.042662 264 6964ft 261kts
04-May-17 22:59 39.066382 -77.129884 264 5723ft 242kts
04-May-17 23:00 39.057152 -77.208315 236 4754ft 210kts
04-May-17 23:01 39.016438 -77.250812 201 2974ft 180kts
04-May-17 23:02 38.981905 -77.233049 118 2132ft 160kts
04-May-17 23:03 38.970737 -77.183508 99 2253ft 146kts
04-May-17 23:04 38.957230 -77.144352 146 1776ft 137kts
04-May-17 23:05 38.929339 -77.120620 142 1222ft 133kts
04-May-17 23:06 38.905438 -77.093083 117 941ft 135kts
04-May-17 23:07 38.891093 -77.058891 135 897ft 138kts
04-May-17 23:08 38.860447 -77.038649 173 42ft 130kts
04-May-17 23:09 38.844007 -77.037479 240 22ft 13kts
04-May-17 23:10 38.845413 -77.038563 357 22ft 23kts
04-May-17 23:11 38.847875 -77.038793 355 22ft 1kts
04-May-17 23:12 38.849509 -77.039556 355 22ft 11kts
04-May-17 23:13 38.852707 -77.039881 344 22ft 16kts
04-May-17 23:14 38.852681 -77.040658 222 22ft 0kts
04-May-17 23:15 38.852681 -77.040658 222 22ft 0kts
04-May-17 23:16 38.852681 -77.040658 222 22ft 0kts
04-May-17 23:17 38.852681 -77.040658 222 22ft 0kts
04-May-17 23:18 38.852681 -77.040658 222 22ft 0kts
04-May-17 23:19 38.852681 -77.040658 222 22ft 0kts
04-May-17 23:20 38.852681 -77.040658 222 22ft 0kts
04-May-17 23:21 38.864489 -77.038881 175 124ft 132kts
04-May-17 23:22 38.875420 -77.042336 147 429ft 140kts
04-May-17 23:23 38.859451 -77.038568 173 34ft 129kts

Navigation Log

Ident Type
Flight plan parsing failed, navigation log unavailable